Flight Track Log - Related Links

Times and Time Zones

All times are in EDT time to prevent confusion due to time zone crossing. See the EJA951 flight status page for this flight to view local times or setup timezone preferences in your user account.

Time Position Orientation Groundspeed Altitude Reporting Facility
EDT Latitude Longitude Course Direction KTS MPH feet Rate Location/Type
Mon 07:42:46 AM 47.4664 -111.3878 129° Southeast 186 214 39,000  Level Salt Lake Center
Mon 07:43:46 AM 47.4222 -111.3622 159° South 215 247 8,200 -13,835 Descending Salt Lake Center
Mon 07:44:47 AM 47.3739 -111.2758 130° Southeast 262 302 11,100 2,975 Climbing Salt Lake Center
Mon 07:45:47 AM 47.3078 -111.1586 130° Southeast 335 386 14,200 3,300 Climbing Salt Lake Center
Mon 07:46:47 AM 47.2197 -111.0047 130° Southeast 395 455 17,700 2,650 Climbing Salt Lake Center
Mon 07:47:47 AM 47.1406 -110.8653 130° Southeast 428 493 19,500 1,700 Climbing Salt Lake Center
Mon 07:48:00 AM 47.0193 -110.6613 129° Southeast  Level FlightAware Approximate
Mon 07:48:47 AM 47.0669 -110.7036 124° Southeast 466 536 21,100  Level Salt Lake Center
Mon 07:49:48 AM 47.0067 -110.5239 116° Southeast 490 564 23,400 2,231 Climbing Salt Lake Center
Mon 07:50:48 AM 46.9433 -110.3422 117° Southeast 498 573 25,600 2,100 Climbing Salt Lake Center
Mon 07:51:48 AM 46.8775 -110.1533 117° Southeast 516 594 27,600 1,850 Climbing Salt Lake Center
Mon 07:52:48 AM 46.8103 -109.9600 117° Southeast 529 609 29,300 1,400 Climbing Salt Lake Center
Mon 07:53:48 AM 46.7378 -109.7608 118° Southeast 551 634 30,400 1,100 Climbing Salt Lake Center
Mon 07:54:48 AM 46.6553 -109.5458 119° Southeast 574 661 31,500 1,041 Climbing Salt Lake Center
Mon 07:55:49 AM 46.5789 -109.3308 117° Southeast 595 685 32,500 893 Climbing Salt Lake Center
Mon 07:56:49 AM 46.4994 -109.1139 118° Southeast 605 696 33,300 850 Climbing Salt Lake Center
Mon 07:57:49 AM 46.4203 -108.9019 118° Southeast 604 695 34,200 850 Climbing Salt Lake Center
Mon 07:58:49 AM 46.3406 -108.6872 118° Southeast 605 696 35,000 900 Climbing Salt Lake Center
Mon 07:59:49 AM 46.2617 -108.4800 119° Southeast 590 679 36,000 992 Climbing Salt Lake Center
Mon 08:00:50 AM 46.1833 -108.2728 119° Southeast 589 678 37,000 992 Climbing Salt Lake Center
Mon 08:01:50 AM 46.1042 -108.0672 119° Southeast 589 678 38,000 1,000 Climbing Salt Lake Center
Mon 08:02:50 AM 46.0258 -107.8650 119° Southeast 581 669 39,000 500 Climbing Salt Lake Center
Mon 08:03:50 AM 45.9483 -107.6642 119° Southeast 576 663 39,000  Level Salt Lake Center
Mon 08:04:51 AM 45.8689 -107.4614 119° Southeast 579 666 39,000  Level Salt Lake Center
Mon 08:05:51 AM 45.7894 -107.2586 119° Southeast 580 667 39,000  Level Salt Lake Center
Mon 08:06:51 AM 45.7097 -107.0564 119° Southeast 580 667 39,000  Level Salt Lake Center
Mon 08:07:51 AM 45.6286 -106.8564 120° Southeast 580 667 39,000  Level Salt Lake Center
Mon 08:08:51 AM 45.5483 -106.6592 120° Southeast 580 667 39,000  Level Salt Lake Center
Mon 08:09:52 AM 45.4706 -106.4631 119° Southeast 572 658 39,000  Level Salt Lake Center
Mon 08:10:52 AM 45.3894 -106.2667 120° Southeast 573 659 39,000  Level Salt Lake Center
Mon 08:11:52 AM 45.3103 -106.0717 120° Southeast 572 658 39,000  Level Salt Lake Center
Mon 08:12:52 AM 45.2283 -105.8772 121° Southeast 572 658 39,000  Level Salt Lake Center
Mon 08:13:53 AM 45.1478 -105.6811 120° Southeast 573 659 39,000  Level Salt Lake Center
Mon 08:14:53 AM 45.0658 -105.4872 121° Southeast 574 661 39,000  Level Salt Lake Center
Mon 08:15:53 AM 44.9847 -105.2950 121° Southeast 574 661 39,000  Level Salt Lake Center
Mon 08:16:53 AM 44.9025 -105.1019 121° Southeast 573 659 39,000  Level Salt Lake Center
Mon 08:17:54 AM 44.8197 -104.9103 121° Southeast 573 659 39,000  Level Salt Lake Center
Mon 08:18:54 AM 44.7367 -104.7183 121° Southeast 574 661 39,000  Level Salt Lake Center
Mon 08:19:37 AM 44.6844 -104.5975 121° Southeast 574 661 39,000  Level Denver Center
Mon 08:20:38 AM 44.5908 -104.3831 121° Southeast 574 661 39,000  Level Denver Center
Mon 08:21:38 AM 44.5097 -104.1989 122° Southeast 575 662 39,000  Level Denver Center
Mon 08:22:39 AM 44.4294 -104.0158 122° Southeast 579 666 39,000  Level Denver Center
Mon 08:24:34 AM 44.2594 -103.6339 122° Southeast 576 663 39,000  Level Minneapolis Center
Mon 08:25:36 AM 44.1736 -103.4439 122° Southeast 577 664 39,000  Level Minneapolis Center
Mon 08:26:37 AM 44.0881 -103.2561 122° Southeast 578 665 39,000  Level Minneapolis Center
Mon 08:27:39 AM 44.0028 -103.0678 122° Southeast 578 665 39,000  Level Minneapolis Center
Mon 08:28:40 AM 43.9111 -102.8822 124° Southeast 578 665 39,000  Level Minneapolis Center
Mon 08:29:41 AM 43.8156 -102.7022 126° Southeast 578 665 39,000  Level Minneapolis Center
Mon 08:30:43 AM 43.7206 -102.5236 126° Southeast 578 665 39,000  Level Minneapolis Center
Mon 08:31:44 AM 43.6269 -102.3444 126° Southeast 578 665 39,000  Level Minneapolis Center
Mon 08:32:44 AM 43.5239 -102.1489 126° Southeast 577 664 39,000  Level Denver Center
Mon 08:33:45 AM 43.4203 -101.9544 126° Southeast 575 662 39,000  Level Denver Center
Mon 08:34:45 AM 43.3261 -101.7781 126° Southeast 575 662 39,000  Level Denver Center
Mon 08:35:46 AM 43.2317 -101.6031 126° Southeast 575 662 39,000  Level Denver Center
Mon 08:36:47 AM 43.1369 -101.4289 127° Southeast 574 661 39,000  Level Denver Center
Mon 08:37:47 AM 43.0422 -101.2556 127° Southeast 573 659 39,000  Level Denver Center
Mon 08:38:48 AM 42.9478 -101.0825 127° Southeast 573 659 39,000  Level Denver Center
Mon 08:39:49 AM 42.8522 -100.9111 127° Southeast 573 659 39,000  Level Denver Center
Mon 08:40:50 AM 42.7569 -100.7386 127° Southeast 572 658 39,000  Level Denver Center
Mon 08:41:50 AM 42.6622 -100.5689 127° Southeast 572 658 39,000  Level Denver Center
Mon 08:42:51 AM 42.5542 -100.3764 127° Southeast 572 658 39,000  Level Denver Center
Mon 08:43:52 AM 42.4608 -100.2111 127° Southeast 573 659 39,000  Level Denver Center
Mon 08:44:53 AM 42.3653 -100.0439 128° Southeast 581 669 39,000  Level Denver Center
Mon 08:45:53 AM 42.2553 -99.8528 128° Southeast 580 667 39,000  Level Denver Center
Mon 08:46:54 AM 42.1636 -99.6906 127° Southeast 581 669 39,000  Level Denver Center
Mon 08:47:55 AM 42.0642 -99.5200 128° Southeast 580 667 39,000  Level Denver Center
Mon 08:48:56 AM 41.9664 -99.3503 128° Southeast 576 663 39,000  Level Denver Center
Mon 08:49:56 AM 41.8686 -99.1828 128° Southeast 572 658 39,000  Level Denver Center
Mon 08:50:57 AM 41.7692 -99.0158 129° Southeast 572 658 39,000  Level Denver Center
Mon 08:51:58 AM 41.6694 -98.8467 128° Southeast 572 658 39,000  Level Denver Center
Mon 08:52:59 AM 41.5697 -98.6792 128° Southeast 572 658 39,000  Level Denver Center
Mon 08:53:59 AM 41.4686 -98.5100 129° Southeast 572 658 39,000  Level Denver Center
Mon 08:55:18 AM 41.3472 -98.2511 122° Southeast 583 671 39,000  Level Minneapolis Center
Mon 08:56:19 AM 41.2911 -98.0444 110° East 587 676 39,000  Level Minneapolis Center
Mon 08:57:21 AM 41.2342 -97.8378 110° East 588 677 39,000  Level Minneapolis Center
Mon 08:58:22 AM 41.1767 -97.6333 110° East 588 677 39,000  Level Minneapolis Center
Mon 08:59:24 AM 41.1192 -97.4289 110° East 589 678 39,000  Level Minneapolis Center
Mon 09:00:25 AM 41.0597 -97.2164 110° East 592 681 39,000  Level Minneapolis Center
Mon 09:01:26 AM 41.0017 -97.0119 111° Southeast 593 682 39,000  Level Minneapolis Center
Mon 09:02:28 AM 40.9431 -96.8083 111° Southeast 593 682 39,000  Level Minneapolis Center
Mon 09:03:29 AM 40.8611 -96.6197 120° Southeast 594 684 39,000  Level Minneapolis Center
Mon 09:04:31 AM 40.7697 -96.4439 124° Southeast 593 682 39,000  Level Minneapolis Center
Mon 09:05:32 AM 40.6778 -96.2675 124° Southeast 592 681 39,000  Level Minneapolis Center
Mon 09:06:34 AM 40.5675 -96.0556 124° Southeast 589 678 39,000  Level Minneapolis Center
Mon 09:07:35 AM 40.4733 -95.8803 125° Southeast 589 678 39,000  Level Minneapolis Center
Mon 09:08:37 AM 40.3808 -95.7042 125° Southeast 589 678 39,000  Level Minneapolis Center
Mon 09:09:38 AM 40.2864 -95.5289 125° Southeast 589 678 39,000  Level Minneapolis Center
Mon 09:10:40 AM 40.1911 -95.3525 125° Southeast 589 678 39,000  Level Minneapolis Center
Mon 09:11:25 AM 40.1125 -95.2039 125° Southeast 593 682 39,000  Level Kansas City Center
Mon 09:12:28 AM 40.0214 -95.0372 125° Southeast 591 680 39,000  Level Kansas City Center
Mon 09:13:29 AM 39.9222 -94.8353 123° Southeast 587 676 39,000  Level Kansas City Center
Mon 09:14:32 AM 39.8483 -94.6531 118° Southeast 589 678 39,000 -683 Level Kansas City Center
Mon 09:15:32 AM 39.7739 -94.4725 118° Southeast 590 679 37,600 -1,659 Descending Kansas City Center
Mon 09:16:35 AM 39.6692 -94.2750 125° Southeast 591 680 35,600 -1,742 Descending Kansas City Center
Mon 09:17:36 AM 39.5753 -94.1092 126° Southeast 591 680 34,000 -1,918 Descending Kansas City Center
Mon 09:18:37 AM 39.4725 -93.9208 125° Southeast 576 663 31,700 -2,459 Descending Kansas City Center
Mon 09:19:38 AM 39.3903 -93.7558 123° Southeast 573 659 29,000 -2,710 Descending Kansas City Center
Mon 09:20:41 AM 39.3306 -93.5972 116° Southeast 555 639 26,100 -3,408 Descending Kansas City Center
Mon 09:21:43 AM 39.2581 -93.3994 115° Southeast 518 596 21,900 -3,738 Descending Kansas City Center
Mon 09:22:43 AM 39.2017 -93.2478 116° Southeast 489 563 18,500 -3,000 Descending Kansas City Center
Mon 09:23:45 AM 39.1464 -93.0994 116° Southeast 478 550 15,800 -2,488 Descending Kansas City Center
Mon 09:24:05 AM 39.1297 -93.0561 116° Southeast 421 484 15,100 -1,770 Descending Kansas City Center
Mon 09:24:46 AM 39.0983 -92.9686 115° Southeast 451 519 14,000 -1,558 Descending Kansas City Center
Mon 09:25:49 AM 39.0614 -92.8742 117° Southeast 349 402 12,400 -1,463 Descending Kansas City Center
Mon 09:26:49 AM 39.0231 -92.7764 117° Southeast 315 362 11,000 -1,676 Descending Kansas City Center
Mon 09:28:05 AM 38.9728 -92.6389 115° Southeast 283 326 8,600 -2,112 Descending Kansas City Center
Mon 09:28:54 AM 38.9486 -92.5636 112° Southeast 288 331 6,600 -2,127 Descending Kansas City Center
Mon 09:29:55 AM 38.9244 -92.4761 110° East 269 310 4,700 -1,756 Descending Kansas City Center
Mon 09:30:57 AM 38.9058 -92.4006 108° East 243 280 3,000 -1,268 Descending Kansas City Center
Mon 09:31:58 AM 38.8997 -92.3381 97° East 207 238 2,100 -896 Descending Kansas City Center
Mon 09:32:04 AM 38.9008 -92.3319 77° East 169 194 2,000 -100 Descending Kansas City Center
Mon 09:32:58 AM 38.8928 -92.2831 102° East 182 209 2,000 153 Level Kansas City Center
Mon 09:34:02 AM 38.8853 -92.2331 101° East 167 192 2,300  Climbing Kansas City Center
Mon 09:35:02 AM 38.8642 -92.2008 130° Southeast 140 161 2,000 -484 Descending Kansas City Center
Mon 09:36:06 AM 38.8286 -92.2133 195° South 128 147 1,300 -656 Descending Kansas City Center

Login

Don't have an account? Register now (free) for customized features, flight alerts, and more!